This is the latest recevied weather packets stored in our database for station/object DL6MM-4. If no packets are shown the sender has not sent any weather packets the latest 10 day(s).
| Time | Temp. | Humidity | Pressure | Rain* | Wind** | Luminosity | Snow |
|---|---|---|---|---|---|---|---|
| 1777834755 | 19.44° C | 50% | 1009.7 hPa | 0 mm | - | - | - |
| 1777834155 | 19.44° C | 49% | 1009.5 hPa | 0 mm | - | - | - |
| 1777833555 | 19.44° C | 48% | 1009.4 hPa | 0 mm | - | - | - |
| 1777832955 | 19.44° C | 49% | 1009.2 hPa | 0 mm | - | - | - |
| 1777832355 | 20° C | 48% | 1009.2 hPa | 0 mm | - | - | - |
| 1777831755 | 20° C | 47% | 1009 hPa | 0 mm | - | - | - |
| 1777831155 | 20.56° C | 46% | 1008.9 hPa | 0 mm | - | - | - |
| 1777830555 | 20.56° C | 43% | 1008.9 hPa | 0 mm | - | - | - |
| 1777829955 | 21.11° C | 39% | 1008.9 hPa | 0 mm | - | - | - |
| 1777829355 | 21.11° C | 39% | 1008.7 hPa | 0 mm | - | - | - |
| 1777828755 | 21.11° C | 38% | 1008.6 hPa | 0 mm | - | - | - |
| 1777828155 | 21.67° C | 38% | 1008.5 hPa | 0 mm | - | - | - |
| 1777827555 | 21.67° C | 40% | 1008.5 hPa | 0 mm | - | - | - |
| 1777826955 | 22.22° C | 39% | 1008.4 hPa | 0 mm | - | - | - |
| 1777826355 | 22.22° C | 39% | 1008.4 hPa | 0 mm | - | - | - |
| 1777825755 | 22.22° C | 38% | 1008.4 hPa | 0 mm | - | - | - |
| 1777825155 | 22.22° C | 37% | 1008.5 hPa | 0 mm | - | - | - |
| 1777824555 | 22.22° C | 38% | 1008.6 hPa | 0 mm | - | - | - |
| 1777823955 | 22.22° C | 40% | 1008.6 hPa | 0 mm | - | - | - |
| 1777823355 | 22.22° C | 40% | 1008.6 hPa | 0 mm | - | - | - |
| 1777822755 | 22.22° C | 40% | 1008.6 hPa | 0 mm | - | - | - |
| 1777822155 | 22.22° C | 39% | 1008.6 hPa | 0 mm | - | - | - |
| 1777821555 | 22.78° C | 38% | 1008.9 hPa | 0 mm | - | - | - |
| 1777820955 | 23.89° C | 33% | 1008.7 hPa | 0 mm | - | - | - |
| 1777820355 | 24.44° C | 33% | 1008.7 hPa | 0 mm | - | - | - |
* Rain latest hour (hover to see other rain measurements)
** Current wind speed in m/s (hover to see current wind gust speed)